sensor_id;sensor_type;location;lat;lon;timestamp;temperature;humidity
770;DHT22;368;48.698;9.116;2023-06-22T00:00:04;19.80;99.90
770;DHT22;368;48.698;9.116;2023-06-22T00:02:34;19.40;99.90
770;DHT22;368;48.698;9.116;2023-06-22T00:05:00;19.50;99.90
770;DHT22;368;48.698;9.116;2023-06-22T00:07:27;19.40;99.90
770;DHT22;368;48.698;9.116;2023-06-22T00:09:55;19.30;99.90
770;DHT22;368;48.698;9.116;2023-06-22T00:12:22;19.40;99.90
770;DHT22;368;48.698;9.116;2023-06-22T00:14:49;19.30;99.90
770;DHT22;368;48.698;9.116;2023-06-22T00:17:15;19.30;99.90
770;DHT22;368;48.698;9.116;2023-06-22T00:19:42;19.20;99.90
770;DHT22;368;48.698;9.116;2023-06-22T00:22:09;19.20;99.90
770;DHT22;368;48.698;9.116;2023-06-22T00:24:36;19.20;99.90
770;DHT22;368;48.698;9.116;2023-06-22T00:27:04;19.20;99.90
770;DHT22;368;48.698;9.116;2023-06-22T00:29:31;19.10;99.90
770;DHT22;368;48.698;9.116;2023-06-22T00:31:58;19.10;99.90
770;DHT22;368;48.698;9.116;2023-06-22T00:34:24;19.10;99.90
770;DHT22;368;48.698;9.116;2023-06-22T00:36:51;19.10;99.90
770;DHT22;368;48.698;9.116;2023-06-22T00:39:18;19.00;99.90
770;DHT22;368;48.698;9.116;2023-06-22T00:41:45;19.00;99.90
770;DHT22;368;48.698;9.116;2023-06-22T00:44:13;18.90;99.90
770;DHT22;368;48.698;9.116;2023-06-22T00:46:40;18.90;99.90
770;DHT22;368;48.698;9.116;2023-06-22T00:49:06;18.90;99.90
770;DHT22;368;48.698;9.116;2023-06-22T00:51:33;18.90;99.90
770;DHT22;368;48.698;9.116;2023-06-22T00:54:04;18.90;99.90
770;DHT22;368;48.698;9.116;2023-06-22T00:56:32;18.90;99.90
770;DHT22;368;48.698;9.116;2023-06-22T00:58:59;18.80;99.90
770;DHT22;368;48.698;9.116;2023-06-22T01:01:30;18.80;99.90
770;DHT22;368;48.698;9.116;2023-06-22T01:03:57;18.80;99.90
770;DHT22;368;48.698;9.116;2023-06-22T01:06:29;19.00;99.90
770;DHT22;368;48.698;9.116;2023-06-22T01:09:08;19.00;99.90
770;DHT22;368;48.698;9.116;2023-06-22T01:11:41;18.80;99.90
770;DHT22;368;48.698;9.116;2023-06-22T01:14:15;18.80;99.90
770;DHT22;368;48.698;9.116;2023-06-22T01:16:48;18.70;99.90
770;DHT22;368;48.698;9.116;2023-06-22T01:19:35;18.70;99.90
770;DHT22;368;48.698;9.116;2023-06-22T01:22:02;18.70;99.90
770;DHT22;368;48.698;9.116;2023-06-22T01:24:33;18.70;99.90
770;DHT22;368;48.698;9.116;2023-06-22T01:27:22;18.90;99.90
770;DHT22;368;48.698;9.116;2023-06-22T01:29:56;18.80;99.90
770;DHT22;368;48.698;9.116;2023-06-22T01:32:27;18.80;99.90
770;DHT22;368;48.698;9.116;2023-06-22T01:34:54;18.90;99.90
770;DHT22;368;48.698;9.116;2023-06-22T01:37:22;19.00;99.90
770;DHT22;368;48.698;9.116;2023-06-22T01:39:49;19.00;99.90
770;DHT22;368;48.698;9.116;2023-06-22T01:42:17;18.90;99.90
770;DHT22;368;48.698;9.116;2023-06-22T01:44:44;18.90;99.90
770;DHT22;368;48.698;9.116;2023-06-22T01:47:12;18.90;99.90
770;DHT22;368;48.698;9.116;2023-06-22T01:49:40;18.80;99.90
770;DHT22;368;48.698;9.116;2023-06-22T01:52:07;18.80;99.90
770;DHT22;368;48.698;9.116;2023-06-22T01:54:34;18.80;99.90
770;DHT22;368;48.698;9.116;2023-06-22T01:57:01;18.80;99.90
770;DHT22;368;48.698;9.116;2023-06-22T01:59:31;18.80;99.90
770;DHT22;368;48.698;9.116;2023-06-22T02:02:02;19.00;99.90
770;DHT22;368;48.698;9.116;2023-06-22T02:04:36;18.80;99.90
770;DHT22;368;48.698;9.116;2023-06-22T02:07:09;18.80;99.90
770;DHT22;368;48.698;9.116;2023-06-22T02:09:39;18.80;99.90
770;DHT22;368;48.698;9.116;2023-06-22T02:12:10;18.70;99.90
770;DHT22;368;48.698;9.116;2023-06-22T02:14:38;18.80;99.90
770;DHT22;368;48.698;9.116;2023-06-22T02:17:05;18.90;99.90
770;DHT22;368;48.698;9.116;2023-06-22T02:19:36;18.90;99.90
770;DHT22;368;48.698;9.116;2023-06-22T02:22:03;18.80;99.90
770;DHT22;368;48.698;9.116;2023-06-22T02:24:30;18.80;99.90
770;DHT22;368;48.698;9.116;2023-06-22T02:26:59;18.90;99.90
770;DHT22;368;48.698;9.116;2023-06-22T02:29:25;18.90;99.90
770;DHT22;368;48.698;9.116;2023-06-22T02:31:53;18.90;99.90
770;DHT22;368;48.698;9.116;2023-06-22T02:34:20;18.80;99.90
770;DHT22;368;48.698;9.116;2023-06-22T02:36:49;18.70;99.90
770;DHT22;368;48.698;9.116;2023-06-22T02:39:18;18.70;99.90
770;DHT22;368;48.698;9.116;2023-06-22T02:41:46;18.80;99.90
770;DHT22;368;48.698;9.116;2023-06-22T02:44:12;18.70;99.90
770;DHT22;368;48.698;9.116;2023-06-22T02:46:39;18.70;99.90
770;DHT22;368;48.698;9.116;2023-06-22T02:49:06;18.70;99.90
770;DHT22;368;48.698;9.116;2023-06-22T02:51:33;18.70;99.90
770;DHT22;368;48.698;9.116;2023-06-22T02:54:02;18.60;99.90
770;DHT22;368;48.698;9.116;2023-06-22T02:56:29;18.60;99.90
770;DHT22;368;48.698;9.116;2023-06-22T02:58:56;18.80;99.90
770;DHT22;368;48.698;9.116;2023-06-22T03:01:26;18.60;99.90
770;DHT22;368;48.698;9.116;2023-06-22T03:03:55;18.50;99.90
770;DHT22;368;48.698;9.116;2023-06-22T03:06:22;18.50;99.90
770;DHT22;368;48.698;9.116;2023-06-22T03:08:58;18.50;99.90
770;DHT22;368;48.698;9.116;2023-06-22T03:11:26;18.40;99.90
770;DHT22;368;48.698;9.116;2023-06-22T03:13:53;18.40;99.90
770;DHT22;368;48.698;9.116;2023-06-22T03:16:20;18.30;99.90
770;DHT22;368;48.698;9.116;2023-06-22T03:18:46;18.30;99.90
770;DHT22;368;48.698;9.116;2023-06-22T03:21:13;18.20;99.90
770;DHT22;368;48.698;9.116;2023-06-22T03:23:41;18.20;99.90
770;DHT22;368;48.698;9.116;2023-06-22T03:26:08;18.20;99.90
770;DHT22;368;48.698;9.116;2023-06-22T03:28:37;18.10;99.90
770;DHT22;368;48.698;9.116;2023-06-22T03:31:04;18.20;99.90
770;DHT22;368;48.698;9.116;2023-06-22T03:33:32;18.10;99.90
770;DHT22;368;48.698;9.116;2023-06-22T03:35:58;18.10;99.90
770;DHT22;368;48.698;9.116;2023-06-22T03:38:25;18.20;99.90
770;DHT22;368;48.698;9.116;2023-06-22T03:40:52;18.30;99.90
770;DHT22;368;48.698;9.116;2023-06-22T03:43:19;18.30;99.90
770;DHT22;368;48.698;9.116;2023-06-22T03:45:47;18.30;99.90
770;DHT22;368;48.698;9.116;2023-06-22T03:48:13;18.20;99.90
770;DHT22;368;48.698;9.116;2023-06-22T03:50:40;18.40;99.90
770;DHT22;368;48.698;9.116;2023-06-22T03:53:07;18.30;99.90
770;DHT22;368;48.698;9.116;2023-06-22T03:55:34;18.30;99.90
770;DHT22;368;48.698;9.116;2023-06-22T03:58:01;18.30;99.90
770;DHT22;368;48.698;9.116;2023-06-22T04:00:31;18.30;99.90
770;DHT22;368;48.698;9.116;2023-06-22T04:02:59;18.40;99.90
770;DHT22;368;48.698;9.116;2023-06-22T04:05:26;18.60;99.90
770;DHT22;368;48.698;9.116;2023-06-22T04:07:52;18.50;99.90
770;DHT22;368;48.698;9.116;2023-06-22T04:10:19;18.60;99.90
770;DHT22;368;48.698;9.116;2023-06-22T04:12:47;18.50;99.90
770;DHT22;368;48.698;9.116;2023-06-22T04:15:14;18.60;99.90
770;DHT22;368;48.698;9.116;2023-06-22T04:17:41;18.60;99.90
770;DHT22;368;48.698;9.116;2023-06-22T04:20:09;18.60;99.90
770;DHT22;368;48.698;9.116;2023-06-22T04:22:36;18.70;99.90
770;DHT22;368;48.698;9.116;2023-06-22T04:25:03;18.70;99.90
770;DHT22;368;48.698;9.116;2023-06-22T04:27:31;18.70;99.90
770;DHT22;368;48.698;9.116;2023-06-22T04:29:57;18.80;99.90
770;DHT22;368;48.698;9.116;2023-06-22T04:32:25;18.80;99.90
770;DHT22;368;48.698;9.116;2023-06-22T04:34:52;19.00;99.90
770;DHT22;368;48.698;9.116;2023-06-22T04:37:20;19.00;99.90
770;DHT22;368;48.698;9.116;2023-06-22T04:39:49;19.10;99.90
770;DHT22;368;48.698;9.116;2023-06-22T04:42:15;19.20;99.90
770;DHT22;368;48.698;9.116;2023-06-22T04:44:42;19.20;99.90
770;DHT22;368;48.698;9.116;2023-06-22T04:47:09;19.30;99.90
770;DHT22;368;48.698;9.116;2023-06-22T04:49:36;19.30;99.90
770;DHT22;368;48.698;9.116;2023-06-22T04:52:05;19.50;99.90
770;DHT22;368;48.698;9.116;2023-06-22T04:54:33;19.60;99.90
770;DHT22;368;48.698;9.116;2023-06-22T04:57:01;19.70;99.90
770;DHT22;368;48.698;9.116;2023-06-22T04:59:29;19.70;99.90
770;DHT22;368;48.698;9.116;2023-06-22T05:01:57;19.80;99.90
770;DHT22;368;48.698;9.116;2023-06-22T05:04:25;19.90;99.90
770;DHT22;368;48.698;9.116;2023-06-22T05:06:53;20.00;99.90
770;DHT22;368;48.698;9.116;2023-06-22T05:09:20;20.10;99.90
770;DHT22;368;48.698;9.116;2023-06-22T05:11:49;20.20;99.90
770;DHT22;368;48.698;9.116;2023-06-22T05:14:15;20.30;99.90
770;DHT22;368;48.698;9.116;2023-06-22T05:16:43;20.40;99.90
770;DHT22;368;48.698;9.116;2023-06-22T05:19:10;20.50;99.90
770;DHT22;368;48.698;9.116;2023-06-22T05:21:38;20.60;99.90
770;DHT22;368;48.698;9.116;2023-06-22T05:24:05;20.70;99.90
770;DHT22;368;48.698;9.116;2023-06-22T05:26:33;20.80;99.90
770;DHT22;368;48.698;9.116;2023-06-22T05:29:02;21.00;99.90
770;DHT22;368;48.698;9.116;2023-06-22T05:31:29;21.10;99.90
770;DHT22;368;48.698;9.116;2023-06-22T05:33:56;21.40;99.90
770;DHT22;368;48.698;9.116;2023-06-22T05:36:23;21.40;99.90
770;DHT22;368;48.698;9.116;2023-06-22T05:38:51;21.70;99.90
770;DHT22;368;48.698;9.116;2023-06-22T05:41:18;21.90;99.90
770;DHT22;368;48.698;9.116;2023-06-22T05:43:45;22.00;99.90
770;DHT22;368;48.698;9.116;2023-06-22T05:46:13;22.30;99.90
770;DHT22;368;48.698;9.116;2023-06-22T05:48:40;22.60;99.90
770;DHT22;368;48.698;9.116;2023-06-22T05:51:07;22.50;99.90
770;DHT22;368;48.698;9.116;2023-06-22T05:53:34;22.60;99.90
770;DHT22;368;48.698;9.116;2023-06-22T05:56:01;22.60;99.90
770;DHT22;368;48.698;9.116;2023-06-22T05:58:27;22.60;99.90
770;DHT22;368;48.698;9.116;2023-06-22T06:00:54;22.80;99.90
770;DHT22;368;48.698;9.116;2023-06-22T06:03:22;22.80;99.90
770;DHT22;368;48.698;9.116;2023-06-22T06:05:49;23.10;99.90
770;DHT22;368;48.698;9.116;2023-06-22T06:08:16;23.10;99.90
770;DHT22;368;48.698;9.116;2023-06-22T06:10:43;23.00;99.90
770;DHT22;368;48.698;9.116;2023-06-22T06:13:09;22.80;99.90
770;DHT22;368;48.698;9.116;2023-06-22T06:15:36;22.70;99.90
770;DHT22;368;48.698;9.116;2023-06-22T06:18:04;22.70;99.90
770;DHT22;368;48.698;9.116;2023-06-22T06:20:33;23.00;99.90
770;DHT22;368;48.698;9.116;2023-06-22T06:22:59;23.30;99.90
770;DHT22;368;48.698;9.116;2023-06-22T06:25:27;23.50;99.90
770;DHT22;368;48.698;9.116;2023-06-22T06:27:54;24.00;99.90
770;DHT22;368;48.698;9.116;2023-06-22T06:30:21;24.10;99.90
770;DHT22;368;48.698;9.116;2023-06-22T06:32:49;24.30;99.90
770;DHT22;368;48.698;9.116;2023-06-22T06:35:16;24.30;99.90
770;DHT22;368;48.698;9.116;2023-06-22T06:37:48;24.90;99.90
770;DHT22;368;48.698;9.116;2023-06-22T06:40:17;25.10;99.90
770;DHT22;368;48.698;9.116;2023-06-22T06:42:44;25.10;99.90
770;DHT22;368;48.698;9.116;2023-06-22T06:45:12;25.60;99.90
770;DHT22;368;48.698;9.116;2023-06-22T06:47:39;25.50;99.90
770;DHT22;368;48.698;9.116;2023-06-22T06:50:07;25.70;99.90
770;DHT22;368;48.698;9.116;2023-06-22T06:52:34;25.80;99.90
770;DHT22;368;48.698;9.116;2023-06-22T06:55:03;26.20;99.90
770;DHT22;368;48.698;9.116;2023-06-22T06:57:33;25.90;99.90
770;DHT22;368;48.698;9.116;2023-06-22T07:00:00;26.10;99.90
770;DHT22;368;48.698;9.116;2023-06-22T07:02:27;26.10;99.90
770;DHT22;368;48.698;9.116;2023-06-22T07:04:54;26.70;99.20
770;DHT22;368;48.698;9.116;2023-06-22T07:07:21;26.60;98.90
770;DHT22;368;48.698;9.116;2023-06-22T07:09:48;26.90;98.60
770;DHT22;368;48.698;9.116;2023-06-22T07:12:16;27.10;98.20
770;DHT22;368;48.698;9.116;2023-06-22T07:14:43;27.40;98.00
770;DHT22;368;48.698;9.116;2023-06-22T07:17:10;27.90;97.20
770;DHT22;368;48.698;9.116;2023-06-22T07:19:37;28.40;95.60
770;DHT22;368;48.698;9.116;2023-06-22T07:22:04;28.00;95.90
770;DHT22;368;48.698;9.116;2023-06-22T07:24:31;27.80;95.80
770;DHT22;368;48.698;9.116;2023-06-22T07:26:58;28.00;95.40
770;DHT22;368;48.698;9.116;2023-06-22T07:29:27;28.70;94.10
770;DHT22;368;48.698;9.116;2023-06-22T07:31:53;29.30;94.00
770;DHT22;368;48.698;9.116;2023-06-22T07:34:22;28.20;94.30
770;DHT22;368;48.698;9.116;2023-06-22T07:36:49;28.40;94.70
770;DHT22;368;48.698;9.116;2023-06-22T07:39:16;28.40;93.70
770;DHT22;368;48.698;9.116;2023-06-22T07:41:42;28.20;94.40
770;DHT22;368;48.698;9.116;2023-06-22T07:44:09;28.80;93.60
770;DHT22;368;48.698;9.116;2023-06-22T07:46:37;28.90;92.50
770;DHT22;368;48.698;9.116;2023-06-22T07:49:04;28.50;94.20
770;DHT22;368;48.698;9.116;2023-06-22T07:51:31;28.90;93.50
770;DHT22;368;48.698;9.116;2023-06-22T07:53:57;28.70;92.40
770;DHT22;368;48.698;9.116;2023-06-22T07:56:24;29.30;93.20
770;DHT22;368;48.698;9.116;2023-06-22T07:58:51;29.60;92.60
770;DHT22;368;48.698;9.116;2023-06-22T08:01:18;30.60;91.70
770;DHT22;368;48.698;9.116;2023-06-22T08:03:48;30.40;90.40
770;DHT22;368;48.698;9.116;2023-06-22T08:06:14;30.00;90.70
770;DHT22;368;48.698;9.116;2023-06-22T08:08:42;29.60;91.10
770;DHT22;368;48.698;9.116;2023-06-22T08:11:09;30.30;90.20
770;DHT22;368;48.698;9.116;2023-06-22T08:13:35;30.30;90.80
770;DHT22;368;48.698;9.116;2023-06-22T08:16:03;29.20;90.70
770;DHT22;368;48.698;9.116;2023-06-22T08:18:29;28.70;92.00
770;DHT22;368;48.698;9.116;2023-06-22T08:20:57;29.50;91.70
770;DHT22;368;48.698;9.116;2023-06-22T08:23:24;29.40;91.10
770;DHT22;368;48.698;9.116;2023-06-22T08:25:51;28.90;91.90
770;DHT22;368;48.698;9.116;2023-06-22T08:28:18;28.30;92.10
770;DHT22;368;48.698;9.116;2023-06-22T08:30:45;29.30;92.40
770;DHT22;368;48.698;9.116;2023-06-22T08:33:12;29.70;90.90
770;DHT22;368;48.698;9.116;2023-06-22T08:35:39;29.10;91.30
770;DHT22;368;48.698;9.116;2023-06-22T08:38:07;28.80;91.20
770;DHT22;368;48.698;9.116;2023-06-22T08:40:34;27.60;92.50
770;DHT22;368;48.698;9.116;2023-06-22T08:43:01;27.60;94.00
770;DHT22;368;48.698;9.116;2023-06-22T08:45:27;27.70;94.60
770;DHT22;368;48.698;9.116;2023-06-22T08:47:54;28.60;93.20
770;DHT22;368;48.698;9.116;2023-06-22T08:50:21;29.60;91.40
770;DHT22;368;48.698;9.116;2023-06-22T08:52:48;29.90;90.90
770;DHT22;368;48.698;9.116;2023-06-22T08:55:17;30.00;90.50
770;DHT22;368;48.698;9.116;2023-06-22T08:57:43;29.80;90.50
770;DHT22;368;48.698;9.116;2023-06-22T09:00:11;29.90;91.30
770;DHT22;368;48.698;9.116;2023-06-22T09:02:42;30.10;90.60
770;DHT22;368;48.698;9.116;2023-06-22T09:05:09;30.00;91.20
770;DHT22;368;48.698;9.116;2023-06-22T09:07:36;29.70;91.30
770;DHT22;368;48.698;9.116;2023-06-22T09:10:04;30.00;91.10
770;DHT22;368;48.698;9.116;2023-06-22T09:12:33;30.90;89.70
770;DHT22;368;48.698;9.116;2023-06-22T09:15:00;30.30;90.00
770;DHT22;368;48.698;9.116;2023-06-22T09:17:28;30.80;90.30
770;DHT22;368;48.698;9.116;2023-06-22T09:19:55;31.40;90.00
770;DHT22;368;48.698;9.116;2023-06-22T09:22:23;31.30;88.10
770;DHT22;368;48.698;9.116;2023-06-22T09:24:54;31.80;87.90
770;DHT22;368;48.698;9.116;2023-06-22T09:27:21;31.80;87.40
770;DHT22;368;48.698;9.116;2023-06-22T09:29:49;32.20;84.50
770;DHT22;368;48.698;9.116;2023-06-22T09:32:16;31.80;85.20
770;DHT22;368;48.698;9.116;2023-06-22T09:34:43;32.60;83.20
770;DHT22;368;48.698;9.116;2023-06-22T09:37:10;32.90;81.90
770;DHT22;368;48.698;9.116;2023-06-22T09:39:36;33.20;81.10
770;DHT22;368;48.698;9.116;2023-06-22T09:42:04;34.00;81.60
770;DHT22;368;48.698;9.116;2023-06-22T09:44:31;33.90;78.90
770;DHT22;368;48.698;9.116;2023-06-22T09:47:00;34.00;77.90
770;DHT22;368;48.698;9.116;2023-06-22T09:49:27;33.60;78.30
770;DHT22;368;48.698;9.116;2023-06-22T09:51:53;33.40;79.50
770;DHT22;368;48.698;9.116;2023-06-22T09:54:20;33.40;79.10
770;DHT22;368;48.698;9.116;2023-06-22T09:56:47;34.20;79.50
770;DHT22;368;48.698;9.116;2023-06-22T09:59:14;34.60;75.30
770;DHT22;368;48.698;9.116;2023-06-22T10:01:40;33.70;80.00
770;DHT22;368;48.698;9.116;2023-06-22T10:04:08;34.20;77.90
770;DHT22;368;48.698;9.116;2023-06-22T10:06:35;33.20;78.90
770;DHT22;368;48.698;9.116;2023-06-22T10:09:06;32.60;81.60
770;DHT22;368;48.698;9.116;2023-06-22T10:11:33;32.00;82.70
770;DHT22;368;48.698;9.116;2023-06-22T10:14:01;31.70;82.30
770;DHT22;368;48.698;9.116;2023-06-22T10:16:30;31.30;83.50
770;DHT22;368;48.698;9.116;2023-06-22T10:18:58;32.10;83.50
770;DHT22;368;48.698;9.116;2023-06-22T10:21:26;32.70;81.90
770;DHT22;368;48.698;9.116;2023-06-22T10:23:54;32.50;83.70
770;DHT22;368;48.698;9.116;2023-06-22T10:26:21;33.20;79.70
770;DHT22;368;48.698;9.116;2023-06-22T10:28:47;34.20;79.40
770;DHT22;368;48.698;9.116;2023-06-22T10:31:14;33.90;79.30
770;DHT22;368;48.698;9.116;2023-06-22T10:33:42;33.60;76.50
770;DHT22;368;48.698;9.116;2023-06-22T10:36:09;33.00;79.00
770;DHT22;368;48.698;9.116;2023-06-22T10:38:38;34.20;79.00
770;DHT22;368;48.698;9.116;2023-06-22T10:41:04;35.00;75.40
770;DHT22;368;48.698;9.116;2023-06-22T10:43:31;36.50;71.40
770;DHT22;368;48.698;9.116;2023-06-22T10:45:58;34.80;71.80
770;DHT22;368;48.698;9.116;2023-06-22T10:48:25;34.80;71.70
770;DHT22;368;48.698;9.116;2023-06-22T10:50:52;34.10;73.70
770;DHT22;368;48.698;9.116;2023-06-22T10:53:20;33.90;76.40
770;DHT22;368;48.698;9.116;2023-06-22T10:55:48;33.50;74.90
770;DHT22;368;48.698;9.116;2023-06-22T10:58:15;33.00;75.10
770;DHT22;368;48.698;9.116;2023-06-22T11:00:41;32.60;77.40
770;DHT22;368;48.698;9.116;2023-06-22T11:03:08;33.10;77.70
770;DHT22;368;48.698;9.116;2023-06-22T11:05:35;33.10;76.90
770;DHT22;368;48.698;9.116;2023-06-22T11:08:02;33.20;74.80
770;DHT22;368;48.698;9.116;2023-06-22T11:10:29;32.80;76.10
770;DHT22;368;48.698;9.116;2023-06-22T11:12:57;33.00;77.80
770;DHT22;368;48.698;9.116;2023-06-22T11:15:24;32.80;78.80
770;DHT22;368;48.698;9.116;2023-06-22T11:17:50;32.40;79.60
770;DHT22;368;48.698;9.116;2023-06-22T11:20:17;32.40;79.80
770;DHT22;368;48.698;9.116;2023-06-22T11:22:44;31.70;81.90
770;DHT22;368;48.698;9.116;2023-06-22T11:25:11;31.90;81.60
770;DHT22;368;48.698;9.116;2023-06-22T11:27:38;31.60;82.50
770;DHT22;368;48.698;9.116;2023-06-22T11:30:07;31.40;82.30
770;DHT22;368;48.698;9.116;2023-06-22T11:32:34;31.90;83.60
770;DHT22;368;48.698;9.116;2023-06-22T11:35:01;33.00;81.70
770;DHT22;368;48.698;9.116;2023-06-22T11:37:28;33.90;75.90
770;DHT22;368;48.698;9.116;2023-06-22T11:39:55;34.40;74.30
770;DHT22;368;48.698;9.116;2023-06-22T11:42:22;34.10;77.20
770;DHT22;368;48.698;9.116;2023-06-22T11:44:50;35.80;72.00
770;DHT22;368;48.698;9.116;2023-06-22T11:47:19;34.90;71.40
770;DHT22;368;48.698;9.116;2023-06-22T11:49:45;34.90;74.30
770;DHT22;368;48.698;9.116;2023-06-22T11:52:12;34.20;75.80
770;DHT22;368;48.698;9.116;2023-06-22T11:54:39;33.80;77.20
770;DHT22;368;48.698;9.116;2023-06-22T11:57:08;33.20;75.20
770;DHT22;368;48.698;9.116;2023-06-22T11:59:35;33.20;79.60
770;DHT22;368;48.698;9.116;2023-06-22T12:02:02;33.70;76.40
770;DHT22;368;48.698;9.116;2023-06-22T12:04:32;32.80;77.80
770;DHT22;368;48.698;9.116;2023-06-22T12:06:59;33.20;77.70
770;DHT22;368;48.698;9.116;2023-06-22T12:09:26;32.00;80.30
770;DHT22;368;48.698;9.116;2023-06-22T12:11:53;32.20;80.80
770;DHT22;368;48.698;9.116;2023-06-22T12:14:20;32.40;80.70
770;DHT22;368;48.698;9.116;2023-06-22T12:16:47;32.00;81.40
770;DHT22;368;48.698;9.116;2023-06-22T12:19:13;31.90;80.30
770;DHT22;368;48.698;9.116;2023-06-22T12:21:42;31.70;82.60
770;DHT22;368;48.698;9.116;2023-06-22T12:24:11;31.60;82.10
770;DHT22;368;48.698;9.116;2023-06-22T12:26:37;31.30;83.50
770;DHT22;368;48.698;9.116;2023-06-22T12:29:04;31.50;84.90
770;DHT22;368;48.698;9.116;2023-06-22T12:31:31;31.10;83.50
770;DHT22;368;48.698;9.116;2023-06-22T12:33:58;30.90;85.80
770;DHT22;368;48.698;9.116;2023-06-22T12:36:24;30.90;86.20
770;DHT22;368;48.698;9.116;2023-06-22T12:38:52;30.80;86.30
770;DHT22;368;48.698;9.116;2023-06-22T12:41:19;30.90;86.00
770;DHT22;368;48.698;9.116;2023-06-22T12:43:46;30.90;86.40
770;DHT22;368;48.698;9.116;2023-06-22T12:46:13;30.70;87.40
770;DHT22;368;48.698;9.116;2023-06-22T12:48:40;30.70;88.00
770;DHT22;368;48.698;9.116;2023-06-22T12:51:08;30.50;88.30
770;DHT22;368;48.698;9.116;2023-06-22T12:53:35;30.40;89.90
770;DHT22;368;48.698;9.116;2023-06-22T12:56:03;30.40;89.00
770;DHT22;368;48.698;9.116;2023-06-22T12:58:30;30.30;90.40
770;DHT22;368;48.698;9.116;2023-06-22T13:00:57;30.40;90.40
770;DHT22;368;48.698;9.116;2023-06-22T13:03:23;30.50;90.60
770;DHT22;368;48.698;9.116;2023-06-22T13:05:53;30.30;90.30
770;DHT22;368;48.698;9.116;2023-06-22T13:08:20;30.20;90.50
770;DHT22;368;48.698;9.116;2023-06-22T13:10:47;30.30;90.60
770;DHT22;368;48.698;9.116;2023-06-22T13:13:15;30.40;90.20
770;DHT22;368;48.698;9.116;2023-06-22T13:15:42;30.50;90.20
770;DHT22;368;48.698;9.116;2023-06-22T13:18:09;30.70;89.20
770;DHT22;368;48.698;9.116;2023-06-22T13:20:35;31.20;88.30
770;DHT22;368;48.698;9.116;2023-06-22T13:23:02;31.20;88.00
770;DHT22;368;48.698;9.116;2023-06-22T13:25:29;31.10;88.30
770;DHT22;368;48.698;9.116;2023-06-22T13:27:56;31.40;85.50
770;DHT22;368;48.698;9.116;2023-06-22T13:30:24;31.20;85.50
770;DHT22;368;48.698;9.116;2023-06-22T13:32:51;31.20;86.00
770;DHT22;368;48.698;9.116;2023-06-22T13:35:17;31.30;84.80
770;DHT22;368;48.698;9.116;2023-06-22T13:37:44;31.40;87.30
770;DHT22;368;48.698;9.116;2023-06-22T13:40:11;31.50;86.20
770;DHT22;368;48.698;9.116;2023-06-22T13:42:38;31.90;85.50
770;DHT22;368;48.698;9.116;2023-06-22T13:45:07;32.00;85.70
770;DHT22;368;48.698;9.116;2023-06-22T13:47:35;31.60;85.50
770;DHT22;368;48.698;9.116;2023-06-22T13:50:02;31.40;86.80
770;DHT22;368;48.698;9.116;2023-06-22T13:52:29;31.50;86.80
770;DHT22;368;48.698;9.116;2023-06-22T13:54:55;31.50;88.10
770;DHT22;368;48.698;9.116;2023-06-22T13:57:22;31.80;87.60
770;DHT22;368;48.698;9.116;2023-06-22T13:59:49;32.40;83.30
770;DHT22;368;48.698;9.116;2023-06-22T14:02:16;32.80;80.00
770;DHT22;368;48.698;9.116;2023-06-22T14:04:44;33.20;79.60
770;DHT22;368;48.698;9.116;2023-06-22T14:07:11;33.10;79.00
770;DHT22;368;48.698;9.116;2023-06-22T14:09:37;32.90;79.00
770;DHT22;368;48.698;9.116;2023-06-22T14:12:05;33.10;81.50
770;DHT22;368;48.698;9.116;2023-06-22T14:14:32;33.50;76.10
770;DHT22;368;48.698;9.116;2023-06-22T14:16:59;33.30;76.50
770;DHT22;368;48.698;9.116;2023-06-22T14:19:26;33.40;77.10
770;DHT22;368;48.698;9.116;2023-06-22T14:21:54;33.20;80.10
770;DHT22;368;48.698;9.116;2023-06-22T14:24:22;32.90;75.80
770;DHT22;368;48.698;9.116;2023-06-22T14:26:49;32.60;76.50
770;DHT22;368;48.698;9.116;2023-06-22T14:29:15;32.50;75.50
770;DHT22;368;48.698;9.116;2023-06-22T14:31:44;32.20;75.40
770;DHT22;368;48.698;9.116;2023-06-22T14:34:11;32.30;72.00
770;DHT22;368;48.698;9.116;2023-06-22T14:36:38;32.60;70.00
770;DHT22;368;48.698;9.116;2023-06-22T14:39:06;33.00;68.90
770;DHT22;368;48.698;9.116;2023-06-22T14:41:33;33.00;65.90
770;DHT22;368;48.698;9.116;2023-06-22T14:44:00;33.00;64.40
770;DHT22;368;48.698;9.116;2023-06-22T14:46:27;32.80;63.50
770;DHT22;368;48.698;9.116;2023-06-22T14:48:54;32.80;61.40
770;DHT22;368;48.698;9.116;2023-06-22T14:51:20;32.30;61.00
770;DHT22;368;48.698;9.116;2023-06-22T14:53:47;32.20;60.10
770;DHT22;368;48.698;9.116;2023-06-22T14:56:15;32.00;58.60
770;DHT22;368;48.698;9.116;2023-06-22T14:58:42;31.60;58.30
770;DHT22;368;48.698;9.116;2023-06-22T15:01:11;31.40;59.70
770;DHT22;368;48.698;9.116;2023-06-22T15:03:38;31.50;60.20
770;DHT22;368;48.698;9.116;2023-06-22T15:06:05;31.40;61.00
770;DHT22;368;48.698;9.116;2023-06-22T15:08:32;31.30;61.00
770;DHT22;368;48.698;9.116;2023-06-22T15:11:00;31.40;59.90
770;DHT22;368;48.698;9.116;2023-06-22T15:13:30;31.40;59.40
770;DHT22;368;48.698;9.116;2023-06-22T15:15:59;31.10;59.10
770;DHT22;368;48.698;9.116;2023-06-22T15:18:26;31.40;59.70
770;DHT22;368;48.698;9.116;2023-06-22T15:20:53;31.80;59.10
770;DHT22;368;48.698;9.116;2023-06-22T15:23:20;31.80;57.30
770;DHT22;368;48.698;9.116;2023-06-22T15:25:47;31.60;58.30
770;DHT22;368;48.698;9.116;2023-06-22T15:28:14;31.50;59.00
770;DHT22;368;48.698;9.116;2023-06-22T15:30:42;31.50;59.50
770;DHT22;368;48.698;9.116;2023-06-22T15:33:09;31.60;59.50
770;DHT22;368;48.698;9.116;2023-06-22T15:35:36;31.20;58.40
770;DHT22;368;48.698;9.116;2023-06-22T15:38:02;30.90;59.40
770;DHT22;368;48.698;9.116;2023-06-22T15:40:29;30.90;59.30
770;DHT22;368;48.698;9.116;2023-06-22T15:42:56;30.90;59.60
770;DHT22;368;48.698;9.116;2023-06-22T15:45:23;30.90;59.80
770;DHT22;368;48.698;9.116;2023-06-22T15:47:51;30.90;59.70
770;DHT22;368;48.698;9.116;2023-06-22T15:50:18;30.90;60.70
770;DHT22;368;48.698;9.116;2023-06-22T15:52:45;30.80;61.60
770;DHT22;368;48.698;9.116;2023-06-22T15:55:16;30.50;61.80
770;DHT22;368;48.698;9.116;2023-06-22T15:57:43;30.30;63.00
770;DHT22;368;48.698;9.116;2023-06-22T16:00:13;30.20;62.80
770;DHT22;368;48.698;9.116;2023-06-22T16:02:40;30.00;64.00
770;DHT22;368;48.698;9.116;2023-06-22T16:05:08;30.00;64.10
770;DHT22;368;48.698;9.116;2023-06-22T16:07:36;29.80;63.80
770;DHT22;368;48.698;9.116;2023-06-22T16:10:04;29.70;65.00
770;DHT22;368;48.698;9.116;2023-06-22T16:12:30;29.60;65.10
770;DHT22;368;48.698;9.116;2023-06-22T16:14:57;29.60;66.70
770;DHT22;368;48.698;9.116;2023-06-22T16:17:24;29.50;66.00
770;DHT22;368;48.698;9.116;2023-06-22T16:19:52;29.40;66.60
770;DHT22;368;48.698;9.116;2023-06-22T16:22:21;29.30;66.40
770;DHT22;368;48.698;9.116;2023-06-22T16:24:48;29.30;67.10
770;DHT22;368;48.698;9.116;2023-06-22T16:27:15;29.10;67.50
770;DHT22;368;48.698;9.116;2023-06-22T16:29:42;29.00;68.40
770;DHT22;368;48.698;9.116;2023-06-22T16:32:09;28.80;68.10
770;DHT22;368;48.698;9.116;2023-06-22T16:34:35;29.00;69.90